Latest Weather Observations for Cocos Island

IDW60801

Issued at 6:32 pm WST Wednesday 1 April 2015 (issued every 30 minutes, with the page automatically refreshed every 10 minutes)

About weather observations | Map of weather stations | Latest weather observations for WA | Other Formats
Station Details ID: 200284 Name: COCOS ISLAND AIRPORT Lat: -12.19 Lon: 96.83 Height: 3.0 m
Data from the previous 72 hours. | See also: Recent months at Cocos Island
Date/Time
WST
Temp
°C
App
Temp
°C
Dew
Point
Rel
Hum
%
Delta-T
°C
Wind Press
QNH
hPa
Press
MSL
hPa
Rain
since 9 am
mm
Dir
 
Spd
km/h
Gust
km/h
Spd
kts
Gust
kts
01/06:30pm 30.1 33.1 25.3 75 3.4 ENE 19 24 10 13 1008.8 - 0.0
01/06:00pm 30.3 33.3 25.5 75 3.4 ENE 20 26 11 14 1008.9 - 0.0
01/05:30pm 30.6 33.2 25.5 74 3.6 NE 22 26 12 14 1008.7 - 0.0
01/05:00pm 30.7 33.3 25.5 74 3.7 NE 22 28 12 15 1008.6 1008.6 0.0
01/04:30pm 30.8 33.7 25.9 75 3.5 NE 22 26 12 14 1008.6 - 0.0
01/04:00pm 31.0 33.7 25.6 73 3.8 NE 22 28 12 15 1008.8 - 0.0
01/03:30pm 31.0 33.4 25.2 71 4.1 NE 22 30 12 16 1009.2 - 0.0
01/03:00pm 30.9 33.1 25.5 73 3.8 NE 24 28 13 15 1009.6 - 0.0
01/02:30pm 31.1 33.4 25.6 72 3.9 NE 24 30 13 16 1010.1 - 0.0
01/02:00pm 31.1 33.2 25.3 71 4.1 ENE 24 28 13 15 1010.4 1010.4 0.0
01/01:30pm 30.8 32.4 25.1 71 4.0 ENE 26 30 14 16 1010.9 - 0.0
01/01:00pm 31.1 32.9 25.5 72 4.0 ENE 26 32 14 17 1011.2 - 0.0
01/12:30pm 31.1 32.4 25.3 71 4.1 ENE 28 33 15 18 1011.6 - 0.0
01/12:00pm 30.8 32.3 25.0 71 4.1 ENE 26 30 14 16 1011.9 - 0.0
01/11:30am 30.5 32.1 25.1 73 3.8 E 26 32 14 17 1012.3 - 0.0
01/11:00am 30.7 32.8 25.3 73 3.8 ENE 24 28 13 15 1012.4 1012.4 0.4
01/10:30am 30.1 31.8 24.7 73 3.8 ENE 24 28 13 15 1012.0 - 0.4
01/10:00am 29.7 31.1 24.8 75 3.4 ENE 26 30 14 16 1011.8 - 0.4
01/09:30am 29.3 31.1 25.5 80 2.7 ENE 26 28 14 15 1011.3 - 0.4
01/09:00am 28.9 30.5 25.2 80 2.6 E 26 30 14 16 1010.9 - 0.4
01/08:30am 28.6 30.3 24.7 79 2.7 E 24 28 13 15 1010.5 - 0.4
01/08:00am 28.3 30.2 24.4 79 2.7 E 22 28 12 15 1010.1 1010.1 0.4
01/07:00am 28.3 29.6 25.3 84 2.1 E 28 33 15 18 1010.0 - 0.4
01/06:30am 28.3 30.0 25.3 84 2.1 ENE 26 30 14 16 1009.6 - 0.4
01/06:00am 28.0 30.9 25.4 86 1.8 ENE 20 24 11 13 1009.6 - 0.4
01/05:30am 27.6 32.0 25.6 89 1.4 E 13 17 7 9 1009.9 - 0.4
01/05:00am 27.6 31.8 25.3 87 1.6 E 13 19 7 10 1010.2 1010.2 0.4
01/04:30am 27.5 31.6 25.2 87 1.6 E 13 20 7 11 1010.4 - 0.4
01/04:00am 27.4 31.4 25.1 87 1.6 E 13 20 7 11 1010.9 - 0.4
01/03:30am 27.1 32.3 25.1 89 1.4 E 7 9 4 5 1010.9 - 0.4
01/03:00am 26.5 31.5 24.5 89 1.4 SE 6 7 3 4 1011.4 - 0.4
01/02:30am 26.7 30.9 24.1 86 1.8 SE 9 11 5 6 1011.9 - 0.4
01/02:00am 26.5 30.6 24.0 86 1.7 SE 9 13 5 7 1012.4 1012.4 0.4
01/01:39am 28.0 28.1 23.3 75 3.2 E 28 46 15 25 1012.7 - 0.2
01/01:30am 27.5 28.8 24.0 81 2.4 E 24 33 13 18 1012.9 - 0.2
01/01:00am 28.6 32.0 25.3 82 2.3 ENE 17 20 9 11 1013.0 - 0.2
01/12:30am 28.8 32.5 25.2 81 2.5 ENE 15 19 8 10 1013.1 - 0.2
01/12:00am 28.7 32.0 25.1 81 2.5 NE 17 20 9 11 1013.2 - 0.2
 
Date/Time
WST
Temp
°C
App
Temp
°C
Dew
Point
Rel
Hum
%
Delta-T
°C
Wind Press
QNH
hPa
Press
MSL
hPa
Rain
since 9 am
mm
Dir
 
Spd
km/h
Gust
km/h
Spd
kts
Gust
kts
31/11:30pm 28.8 32.5 25.2 81 2.5 NE 15 20 8 11 1012.9 - 0.2
31/11:00pm 28.8 32.2 25.2 81 2.5 NE 17 22 9 12 1013.0 1013.0 0.2
31/10:30pm 28.7 33.4 25.6 83 2.2 NE 11 17 6 9 1012.8 - 0.2
31/10:00pm 28.7 32.9 25.4 82 2.3 NE 13 17 7 9 1012.6 - 0.2
31/09:30pm 28.7 31.8 24.2 76 3.1 NE 15 19 8 10 1011.9 - 0.2
31/09:00pm 28.4 30.5 24.1 77 3.0 E 20 26 11 14 1011.6 - 0.2
31/08:30pm 29.2 32.7 24.9 77 3.0 NE 15 19 8 10 1011.4 - 0.2
31/08:00pm 29.4 32.7 25.1 77 3.0 NE 17 20 9 11 1011.2 1011.2 0.2
31/07:30pm 29.3 32.1 24.9 77 3.1 NE 19 26 10 14 1010.9 - 0.2
31/07:00pm 29.3 32.5 25.0 77 3.0 NE 17 20 9 11 1010.6 - 0.2
31/06:30pm 29.8 32.5 24.8 74 3.5 ENE 19 20 10 11 1010.1 - 0.0
31/06:00pm 30.0 32.6 24.9 74 3.6 ENE 20 26 11 14 1009.8 - 0.0
31/05:30pm 30.3 33.9 25.6 76 3.3 NE 17 24 9 13 1009.5 - 0.0
31/05:00pm 30.2 34.1 25.4 75 3.4 NE 15 19 8 10 1009.4 1009.4 0.0
31/04:30pm 30.1 33.5 25.3 75 3.4 NE 17 20 9 11 1009.6 - 0.0
31/04:00pm 30.5 34.1 25.6 75 3.5 ENE 17 20 9 11 1009.8 - 0.0
31/03:30pm 30.4 33.8 25.2 74 3.7 NE 17 20 9 11 1010.2 - 0.0
31/03:00pm 30.3 33.5 25.0 73 3.7 NE 17 24 9 13 1010.5 - 0.0
31/02:30pm 30.3 33.3 25.6 76 3.3 NE 20 24 11 13 1010.8 - 0.0
31/02:00pm 30.5 33.4 25.1 73 3.8 ENE 19 22 10 12 1010.8 1010.8 0.0
31/01:30pm 30.1 32.6 24.5 72 3.9 ENE 19 22 10 12 1011.4 - 0.0
31/01:00pm 30.2 33.0 24.3 70 4.1 ENE 17 20 9 11 1011.5 - 0.0
31/12:30pm 30.0 32.8 24.9 74 3.6 E 19 20 10 11 1011.8 - 0.0
31/12:00pm 29.7 32.2 24.4 73 3.7 E 19 24 10 13 1012.1 - 0.0
31/11:30am 29.1 31.4 24.5 76 3.2 E 20 24 11 13 1012.2 - 0.0
31/11:00am 28.9 30.7 24.9 79 2.8 E 24 30 13 16 1012.0 1012.0 0.0
31/10:30am 28.7 31.4 25.6 83 2.2 E 22 28 12 15 1011.9 - 0.0
31/10:00am 28.7 31.8 25.4 82 2.3 E 19 22 10 12 1011.8 - 0.0
31/09:30am 28.2 31.0 25.2 84 2.1 E 20 24 11 13 1011.7 - 0.0
31/09:00am 28.1 30.8 24.8 82 2.3 E 19 22 10 12 1011.4 - 0.0
31/08:30am 27.2 28.9 24.0 83 2.2 E 22 26 12 14 1010.9 - 0.0
31/08:00am 26.9 30.1 24.4 86 1.7 E 15 22 8 12 1010.7 1010.7 0.0
31/07:30am 27.0 29.8 24.3 85 1.9 E 17 22 9 12 1010.3 - 0.0
31/07:00am 27.0 29.2 24.3 85 1.9 E 20 28 11 15 1010.0 - 0.0
31/06:30am 27.2 28.1 23.9 82 2.3 E 26 32 14 17 1009.6 - 0.0
31/06:00am 26.9 28.0 24.3 86 1.8 E 26 30 14 16 1009.8 - 0.0
31/05:30am 27.0 28.9 25.0 89 1.4 ENE 24 30 13 16 1009.9 - 0.0
31/05:00am 27.6 29.4 24.9 85 1.9 ENE 24 28 13 15 1009.9 1009.9 0.0
31/04:30am 27.7 30.7 24.7 84 2.1 E 17 20 9 11 1010.1 - 0.0
31/04:00am 27.5 32.4 24.6 84 2.0 ESE 7 11 4 6 1010.3 - 0.0
31/03:30am 27.6 32.1 24.6 84 2.1 E 9 13 5 7 1010.5 - 0.0
31/03:00am 27.8 31.0 24.3 81 2.4 ENE 15 19 8 10 1010.8 - 0.0
31/02:30am 27.6 30.6 24.6 84 2.1 E 17 20 9 11 1011.0 - 0.0
31/02:00am 27.4 31.3 24.8 86 1.8 E 13 17 7 9 1011.2 1011.2 0.0
31/01:30am 27.4 31.4 25.1 87 1.6 E 13 15 7 8 1011.5 - 0.0
31/01:00am 27.5 30.2 24.8 85 1.9 E 19 26 10 14 1011.9 - 0.0
31/12:30am 27.6 31.0 25.2 87 1.7 E 17 20 9 11 1012.0 - 0.0
31/12:00am 27.8 31.4 24.3 81 2.4 ESE 13 17 7 9 1012.0 - 0.0
 
Date/Time
WST
Temp
°C
App
Temp
°C
Dew
Point
Rel
Hum
%
Delta-T
°C
Wind Press
QNH
hPa
Press
MSL
hPa
Rain
since 9 am
mm
Dir
 
Spd
km/h
Gust
km/h
Spd
kts
Gust
kts
30/11:30pm 28.0 31.7 24.5 81 2.4 ESE 13 17 7 9 1012.2 - 0.0
30/11:00pm 28.3 31.5 24.3 79 2.8 E 15 19 8 10 1012.1 1012.1 0.0
30/10:30pm 28.2 31.2 24.6 81 2.5 E 17 22 9 12 1012.2 - 0.0
30/10:00pm 28.3 30.7 24.3 79 2.8 E 19 24 10 13 1012.0 - 0.0
30/09:30pm 28.6 31.4 25.8 85 2.0 E 22 28 12 15 1011.7 - 0.0
30/09:00pm 28.7 33.3 24.1 76 3.2 SSE 7 9 4 5 1011.3 - 0.0
30/08:30pm 28.6 33.1 23.7 75 3.4 SSE 6 9 3 5 1011.3 - 0.0
30/08:00pm 28.6 32.3 23.2 72 3.7 S 9 11 5 6 1010.5 1010.5 0.0
30/07:30pm 29.0 32.7 23.3 71 3.9 SSE 9 11 5 6 1010.3 - 0.0
30/07:00pm 29.4 33.5 23.9 72 3.8 SSE 9 13 5 7 1009.9 - 0.0
30/06:30pm 29.7 33.8 23.9 71 4.0 S 9 13 5 7 1009.7 - 0.0
30/06:00pm 29.9 33.9 23.8 70 4.2 SSE 9 13 5 7 1009.4 - 0.0
30/05:30pm 30.5 34.4 23.6 66 4.8 S 9 13 5 7 1009.4 - 0.0
30/05:00pm 30.3 34.3 23.7 68 4.6 SSW 9 11 5 6 1009.1 1009.1 0.0
30/04:30pm 30.5 34.7 23.4 66 4.9 ENE 7 9 4 5 1008.8 - 0.0
30/04:00pm 30.6 34.9 23.3 65 5.0 NE 6 9 3 5 1008.9 - 0.0
30/03:30pm 31.1 36.1 24.5 68 4.6 WNW 6 11 3 6 1009.1 - 0.0
30/03:00pm 30.5 34.8 23.7 67 4.7 ENE 7 9 4 5 1009.5 - 0.0
30/02:30pm 30.1 34.5 24.4 71 4.0 NNE 9 13 5 7 1010.0 - 0.0
30/02:00pm 29.6 34.5 24.3 73 3.7 NE 6 9 3 5 1010.4 1010.4 0.0
30/01:30pm 30.2 34.9 24.3 70 4.1 ENE 7 9 4 5 1010.7 - 0.0
30/01:00pm 30.0 34.4 24.4 72 3.9 N 9 13 5 7 1011.2 - 0.0
30/12:30pm 29.7 34.4 25.6 78 2.9 NNE 11 15 6 8 1011.6 - 0.0
30/12:00pm 29.4 33.4 25.1 77 3.0 NNE 13 17 7 9 1011.9 - 0.0
30/11:30am 29.8 33.5 25.1 76 3.3 NNE 15 19 8 10 1012.2 - 0.0
30/11:00am 29.6 34.1 25.2 77 3.1 NNE 11 15 6 8 1012.1 1012.1 3.8
30/10:30am 29.2 33.9 24.9 77 3.0 NE 9 13 5 7 1012.1 - 3.6
30/10:00am 28.4 32.8 24.5 79 2.7 N 9 11 5 6 1011.8 - 3.6
30/09:30am 28.0 32.2 24.7 82 2.3 NNE 11 13 6 7 1011.6 - 3.6
30/09:00am 27.7 31.9 24.8 84 2.0 NE 11 15 6 8 1011.1 - 3.6
30/08:30am 26.9 32.2 25.3 91 1.1 ESE 7 7 4 4 1010.4 - 3.6
30/08:00am 26.3 32.6 24.7 91 1.1 CALM 0 0 0 0 1009.8 1009.8 3.6
30/07:30am 26.2 32.5 24.8 92 1.0 CALM 0 0 0 0 1009.1 - 3.6
30/07:00am 26.8 32.0 24.8 89 1.4 N 6 11 3 6 1008.8 - 3.6
30/06:30am 26.9 30.9 24.4 86 1.7 NNE 11 15 6 8 1008.3 - 3.6
30/06:00am 26.9 30.9 24.4 86 1.7 NNE 11 15 6 8 1008.2 - 3.6
30/05:33am 26.7 30.4 24.5 88 1.5 N 13 19 7 10 1008.2 - 3.6
30/05:30am 26.7 30.4 24.5 88 1.5 N 13 19 7 10 1008.2 - 3.6
30/05:02am 26.2 31.1 24.6 91 1.1 NNW 7 9 4 5 1008.4 - 3.6
30/05:00am 26.1 30.9 24.5 91 1.1 NNW 7 9 4 5 1008.5 1008.5 3.6
30/04:30am 26.3 31.0 24.3 89 1.4 N 7 11 4 6 1008.8 - 3.6
30/04:00am 26.6 30.5 24.3 87 1.6 N 11 15 6 8 1009.2 - 3.6
30/03:30am 26.1 30.2 23.9 88 1.5 N 9 11 5 6 1009.5 - 3.6
30/03:00am 25.8 30.0 24.1 90 1.2 NNW 9 11 5 6 1009.9 - 3.6
30/02:30am 25.9 29.6 23.9 89 1.4 N 11 17 6 9 1010.2 - 3.6
30/02:00am 26.4 30.0 24.4 89 1.4 N 13 20 7 11 1010.8 1010.8 3.6
30/01:30am 26.4 30.8 24.5 89 1.3 N 9 15 5 8 1011.0 - 3.6
30/01:00am 26.3 29.9 24.4 89 1.3 NNE 13 17 7 9 1011.2 - 3.6
30/12:30am 26.0 29.8 24.0 89 1.4 ENE 11 15 6 8 1011.6 - 3.6
30/12:00am 25.7 30.0 23.7 89 1.4 E 7 9 4 5 1011.6 - 3.6
 
Date/Time
WST
Temp
°C
App
Temp
°C
Dew
Point
Rel
Hum
%
Delta-T
°C
Wind Press
QNH
hPa
Press
MSL
hPa
Rain
since 9 am
mm
Dir
 
Spd
km/h
Gust
km/h
Spd
kts
Gust
kts
29/11:30pm 25.7 30.1 23.8 89 1.3 SSE 7 9 4 5 1011.9 - 3.6
29/11:00pm 25.8 29.5 23.9 89 1.3 SSE 11 15 6 8 1011.6 1011.6 3.2
29/10:30pm 25.8 28.5 24.2 91 1.1 SSW 17 20 9 11 1011.4 - 3.2
29/10:00pm 25.6 28.5 23.8 90 1.2 SSW 15 20 8 11 1011.4 - 2.6
29/09:30pm 25.7 28.3 24.0 90 1.2 SW 17 20 9 11 1011.1 - 2.6
29/09:00pm 25.7 29.1 24.1 91 1.1 SW 13 17 7 9 1010.7 - 2.6
29/08:30pm 25.5 28.9 24.0 91 1.0 W 13 17 7 9 1010.5 - 2.4

Other Formats:

Comma delimited format used in spreadsheet applications
http://www.bom.gov.au/fwo/IDW60801/IDW60801.96996.axf

JavaScript Object Notation format (JSON) in row-major order
http://www.bom.gov.au/fwo/IDW60801/IDW60801.96996.json